LFRQ 221130Z AUTO 25013KT 4200 BR OVC011 11/09 Q1030 BECMG 9999 NSW

ElémentsDécodage
LFRQ Station météo située sur l'aérodrome de QUIMPER Pluguffan
221130Z émis le 22 du mois à 11h30 UTC
AUTO Bulletin édité par un automate
25013KT vent du 250°, 13 noeuds
4200 visibilité horizontale de 4200 mètres
BR brume
OVC011 couverture nuageuse totale (8/8) à 1100 pieds
11/09 température 11°C, point de rosée 09°C
 soit une humidité relative de 87%
Q1030 la pression au niveau de la mer (QNH) est de 1030 hPa
BECMG fluctuation du temps prévue
9999 visibilité horizontale supérieure à 10 Km
NSW pas de temps significatif